Time;durP1;ratioP1;P1;durP2;ratioP2;P2;SDS_P1;SDS_P2;PMS_P1;PMS_P2;Temp;Humidity;BMP_temperature;BMP_pressure;BME280_temperature;BME280_humidity;BME280_pressure;Samples;Min_cycle;Max_cycle;Signal;HPM_P1;HPM_P2
2023/10/30 00:01:48;;;;;;;3.75;2.00;;;11.70;99.90;;;11.32;100.00;96256.38;5054983;28;20024;-40
2023/10/30 00:04:14;;;;;;;2.45;1.85;;;11.70;99.90;;;11.31;100.00;96244.13;5053042;28;20071;-41
2023/10/30 00:06:41;;;;;;;4.10;1.75;;;11.70;99.90;;;11.31;100.00;96238.84;5050858;28;20123;-41
2023/10/30 00:09:06;;;;;;;1.95;1.75;;;11.70;99.90;;;11.33;100.00;96244.88;5058145;28;20024;-40
2023/10/30 00:11:32;;;;;;;1.80;1.63;;;11.70;99.90;;;11.34;100.00;96232.53;5054932;28;20036;-41
2023/10/30 00:13:58;;;;;;;2.15;1.45;;;11.70;99.90;;;11.26;100.00;96225.06;5050090;28;20024;-40
2023/10/30 00:16:23;;;;;;;1.83;1.30;;;11.70;99.90;;;11.38;100.00;96234.06;5056143;28;20079;-42
2023/10/30 00:18:49;;;;;;;2.08;1.23;;;11.70;99.90;;;11.39;100.00;96241.03;5052764;28;20086;-44
2023/10/30 00:21:15;;;;;;;1.90;1.20;;;11.80;99.90;;;11.31;100.00;96227.44;5053114;28;20056;-43
2023/10/30 00:23:41;;;;;;;1.60;1.20;;;11.80;99.90;;;11.39;100.00;96228.66;5054569;28;20039;-41
2023/10/30 00:26:07;;;;;;;2.20;1.50;;;11.80;99.90;;;11.38;100.00;96229.63;5057439;28;20036;-42
2023/10/30 00:28:36;;;;;;;4.07;1.70;;;11.80;99.90;;;11.36;100.00;96242.06;5055471;28;20035;-42
2023/10/30 00:31:02;;;;;;;2.85;1.38;;;11.70;99.90;;;11.31;100.00;96236.22;5047946;28;20381;-41
2023/10/30 00:33:28;;;;;;;2.35;1.38;;;11.70;99.90;;;11.38;100.00;96248.09;5051500;28;20043;-43
2023/10/30 00:35:53;;;;;;;3.00;1.50;;;11.80;99.90;;;11.38;100.00;96258.66;5055017;28;20033;-40
2023/10/30 00:38:19;;;;;;;2.97;1.30;;;11.70;99.90;;;11.39;100.00;96239.22;5056135;28;20036;-42
2023/10/30 00:40:45;;;;;;;1.70;1.38;;;11.80;99.90;;;11.31;100.00;96233.56;5049420;28;20024;-40
2023/10/30 00:43:11;;;;;;;2.40;1.60;;;11.80;99.90;;;11.37;100.00;96277.22;5051691;28;20442;-41
2023/10/30 00:45:36;;;;;;;3.40;1.70;;;11.70;99.90;;;11.35;100.00;96271.19;5047947;28;20454;-41
2023/10/30 00:48:02;;;;;;;4.88;1.60;;;11.70;99.90;;;11.35;100.00;96268.56;5042125;28;20094;-40
2023/10/30 00:50:28;;;;;;;2.70;1.50;;;11.70;99.90;;;11.34;100.00;96280.03;5047978;28;20040;-40
2023/10/30 00:52:54;;;;;;;1.80;1.45;;;11.80;99.90;;;11.36;100.00;96283.44;5052633;28;20035;-41
2023/10/30 00:55:19;;;;;;;2.17;1.58;;;11.70;99.90;;;11.37;100.00;96285.16;5052909;28;20070;-41
2023/10/30 00:57:45;;;;;;;2.67;1.35;;;11.80;99.90;;;11.37;100.00;96285.16;5053460;28;20036;-41
2023/10/30 01:00:11;;;;;;;2.05;1.52;;;11.70;99.90;;;11.36;100.00;96286.94;5052011;28;20524;-41
2023/10/30 01:02:37;;;;;;;3.30;2.00;;;11.80;99.90;;;11.38;100.00;96297.41;5056581;28;20423;-41
2023/10/30 01:05:03;;;;;;;2.17;1.30;;;11.80;99.90;;;11.39;100.00;96307.03;5050010;28;20025;-42
2023/10/30 01:07:29;;;;;;;1.60;1.35;;;11.80;99.90;;;11.38;100.00;96295.63;5050894;28;20503;-42
2023/10/30 01:09:55;;;;;;;2.20;1.13;;;11.80;99.90;;;11.40;100.00;96296.38;5041859;28;20028;-42
2023/10/30 01:12:21;;;;;;;1.27;1.10;;;11.80;99.90;;;11.43;100.00;96292.69;5063240;28;20871;-43
2023/10/30 01:14:47;;;;;;;1.70;1.27;;;11.80;99.90;;;11.44;100.00;96278.56;5054601;28;20083;-42
2023/10/30 01:17:13;;;;;;;1.65;1.20;;;11.80;99.90;;;11.45;100.00;96280.28;5054628;28;20502;-41
2023/10/30 01:19:39;;;;;;;2.45;1.40;;;11.80;99.90;;;11.45;100.00;96281.13;5052847;28;20020;-41
2023/10/30 01:22:05;;;;;;;1.90;1.30;;;11.80;99.90;;;11.44;100.00;96279.41;5053093;28;20035;-42
2023/10/30 01:24:31;;;;;;;2.97;1.60;;;11.80;99.90;;;11.44;100.00;96287.34;5051680;28;20162;-41
2023/10/30 01:26:56;;;;;;;1.45;1.20;;;11.80;99.90;;;11.35;100.00;96272.03;5055741;28;20530;-41
2023/10/30 01:29:22;;;;;;;1.48;1.38;;;11.80;99.90;;;11.45;100.00;96288.22;5051816;28;20690;-43
2023/10/30 01:31:48;;;;;;;3.60;1.80;;;11.80;99.90;;;11.39;100.00;96278.81;5053102;28;20085;-41
2023/10/30 01:34:13;;;;;;;2.95;1.60;;;11.80;99.90;;;11.45;100.00;96299.59;5049245;28;20419;-42
2023/10/30 01:36:39;;;;;;;4.25;1.92;;;11.80;99.90;;;11.45;100.00;96298.75;5045847;28;20048;-44
2023/10/30 01:39:05;;;;;;;1.88;1.55;;;11.80;99.90;;;11.45;100.00;96299.59;5054970;28;20394;-42
2023/10/30 01:41:30;;;;;;;2.80;1.50;;;11.80;99.90;;;11.47;100.00;96299.53;5051684;28;20028;-42
2023/10/30 01:43:56;;;;;;;2.17;1.50;;;11.80;99.90;;;11.49;100.00;96296.81;5055353;28;20094;-41
2023/10/30 01:46:22;;;;;;;1.42;1.33;;;11.80;99.90;;;11.49;100.00;96302.09;5052130;28;20037;-41
2023/10/30 01:48:48;;;;;;;1.70;1.25;;;11.80;99.90;;;11.48;100.00;96284.53;5052597;28;20442;-42
2023/10/30 01:51:19;;;;;;;5.47;1.35;;;11.80;99.90;;;11.46;100.00;96297.81;5049838;28;20669;-41
2023/10/30 01:53:47;;;;;;;2.53;1.77;;;11.90;99.90;;;11.43;100.00;96298.84;5037044;28;20046;-42
2023/10/30 01:56:13;;;;;;;1.63;1.52;;;11.80;99.90;;;11.40;100.00;96306.94;5052822;28;20046;-42
2023/10/30 01:58:39;;;;;;;4.57;1.60;;;11.80;99.90;;;11.42;100.00;96306.84;5040113;28;20055;-39
2023/10/30 02:01:05;;;;;;;2.35;1.60;;;11.80;99.90;;;11.42;100.00;96304.22;5038771;28;20465;-38
2023/10/30 02:03:31;;;;;;;2.28;1.38;;;11.80;99.90;;;11.39;100.00;96296.47;5053166;28;20108;-39
2023/10/30 02:05:56;;;;;;;4.10;1.33;;;11.80;99.90;;;11.40;100.00;96298.19;5034327;28;20082;-39
2023/10/30 02:08:22;;;;;;;3.95;1.65;;;11.80;99.90;;;11.36;100.00;96289.59;5057365;28;20473;-39
2023/10/30 02:10:48;;;;;;;2.17;1.40;;;11.70;99.90;;;11.33;100.00;96286.28;5054151;28;20165;-42
2023/10/30 02:13:14;;;;;;;2.50;1.60;;;11.70;99.90;;;11.25;100.00;96282.28;5055588;28;20028;-41
2023/10/30 02:15:40;;;;;;;2.17;1.52;;;11.60;99.90;;;11.19;100.00;96271.22;5052542;28;20100;-39
2023/10/30 02:18:05;;;;;;;2.22;1.70;;;11.60;99.90;;;11.08;100.00;96271.84;5056313;28;20366;-39
2023/10/30 02:20:32;;;;;;;1.90;1.35;;;11.50;99.90;;;11.01;100.00;96270.47;5055867;28;20437;-40
2023/10/30 02:22:58;;;;;;;2.60;1.48;;;11.40;99.90;;;10.93;100.00;96263.00;5058751;28;20033;-42
2023/10/30 02:25:24;;;;;;;1.92;1.38;;;11.40;99.90;;;10.86;100.00;96259.03;5054116;28;20059;-42
2023/10/30 02:27:51;;;;;;;1.63;1.30;;;11.30;99.90;;;10.94;100.00;96271.78;5056838;28;20992;-41
2023/10/30 02:30:18;;;;;;;2.58;1.40;;;11.30;99.90;;;10.88;100.00;96268.53;5055969;28;20058;-42
2023/10/30 02:32:44;;;;;;;2.28;1.33;;;11.30;99.90;;;10.94;100.00;96269.97;5056265;28;20063;-40
2023/10/30 02:35:16;;;;;;;1.92;1.25;;;11.40;99.90;;;11.02;100.00;96264.28;5052834;28;20037;-40
2023/10/30 02:37:43;;;;;;;1.90;1.30;;;11.40;99.90;;;11.01;100.00;96259.94;5058257;28;20032;-38
2023/10/30 02:40:09;;;;;;;2.05;1.30;;;11.40;99.90;;;10.95;100.00;96247.94;5056253;28;20051;-39
2023/10/30 02:42:35;;;;;;;1.35;1.20;;;11.40;99.90;;;11.08;100.00;96272.69;5054636;28;20059;-38
2023/10/30 02:45:03;;;;;;;1.63;1.27;;;11.50;99.90;;;11.02;100.00;96253.72;5034644;28;20108;-40
2023/10/30 02:47:31;;;;;;;2.00;1.20;;;11.40;99.90;;;11.06;100.00;96264.00;5038358;28;20032;-39
2023/10/30 02:49:56;;;;;;;2.08;1.30;;;11.50;99.90;;;11.02;100.00;96251.94;5054760;28;20433;-39
2023/10/30 02:52:22;;;;;;;2.13;1.17;;;11.40;99.90;;;10.99;100.00;96254.75;5058734;28;20028;-39
2023/10/30 02:54:48;;;;;;;1.70;1.30;;;11.40;99.90;;;10.92;100.00;96248.13;5052005;28;20032;-38
2023/10/30 02:57:13;;;;;;;1.52;1.30;;;11.40;99.90;;;10.94;100.00;96251.50;5054493;28;20390;-39
2023/10/30 02:59:40;;;;;;;1.50;1.40;;;11.30;99.90;;;10.95;100.00;96247.09;5055057;28;20155;-39
2023/10/30 03:02:06;;;;;;;3.05;1.70;;;11.30;99.90;;;10.90;100.00;96234.16;5055496;28;20024;-43
2023/10/30 03:04:32;;;;;;;2.00;1.40;;;11.30;99.90;;;10.94;100.00;96245.41;5051267;28;20114;-39
2023/10/30 03:06:58;;;;;;;2.47;1.60;;;11.30;99.90;;;10.96;100.00;96254.06;5050614;28;20033;-41
2023/10/30 03:09:31;;;;;;;1.33;1.10;;;11.30;99.90;;;10.91;100.00;96243.78;5058960;28;20055;-39
2023/10/30 03:11:57;;;;;;;3.80;1.48;;;11.40;99.90;;;11.00;100.00;96252.94;5034342;28;20040;-37
2023/10/30 03:14:23;;;;;;;1.23;1.13;;;11.40;99.90;;;11.03;100.00;96258.91;5056332;28;20506;-39
2023/10/30 03:16:49;;;;;;;1.92;1.50;;;11.40;99.90;;;11.06;100.00;96261.38;5052999;28;20032;-38
2023/10/30 03:19:15;;;;;;;1.80;1.33;;;11.40;99.90;;;11.10;100.00;96266.47;5053554;28;20020;-38
2023/10/30 03:21:40;;;;;;;2.17;1.50;;;11.50;99.90;;;11.11;100.00;96258.47;5052956;28;20032;-38
2023/10/30 03:24:07;;;;;;;2.80;1.20;;;11.50;99.90;;;11.13;100.00;96264.50;5057486;28;20028;-41
2023/10/30 03:26:32;;;;;;;1.63;1.20;;;11.50;99.90;;;11.16;100.00;96253.78;5052814;28;20479;-39
2023/10/30 03:28:59;;;;;;;2.50;1.52;;;11.50;99.90;;;11.15;100.00;96245.97;5048651;28;20055;-39
2023/10/30 03:31:25;;;;;;;2.20;1.58;;;11.50;99.90;;;11.13;100.00;96239.94;5053690;28;20028;-38
2023/10/30 03:33:51;;;;;;;3.25;1.23;;;11.50;99.90;;;11.11;100.00;96242.66;5053462;28;20028;-39
2023/10/30 03:36:21;;;;;;;1.77;1.42;;;11.50;99.90;;;11.08;100.00;96234.91;5054017;28;20037;-40
2023/10/30 03:38:47;;;;;;;1.75;1.20;;;11.50;99.90;;;11.05;100.00;96240.34;5057280;28;20067;-38
2023/10/30 03:41:13;;;;;;;2.22;1.50;;;11.40;99.90;;;10.99;100.00;96232.78;5054062;28;20473;-40
2023/10/30 03:43:38;;;;;;;2.17;1.33;;;11.40;99.90;;;10.94;100.00;96229.56;5053125;28;20032;-39
2023/10/30 03:46:04;;;;;;;2.60;1.63;;;11.30;99.90;;;10.88;100.00;96230.78;5054506;28;20044;-39
2023/10/30 03:48:31;;;;;;;2.97;1.40;;;11.30;99.90;;;10.85;100.00;96229.13;5040396;28;20036;-39
2023/10/30 03:50:56;;;;;;;1.73;1.35;;;11.20;99.90;;;10.82;100.00;96231.09;5039017;28;21009;-38
2023/10/30 03:53:22;;;;;;;1.80;1.02;;;11.20;99.90;;;10.80;100.00;96230.34;5053746;28;20028;-38
2023/10/30 03:55:48;;;;;;;2.05;1.00;;;11.20;99.90;;;10.79;100.00;96223.38;5051884;28;20032;-39
2023/10/30 03:58:14;;;;;;;1.70;1.35;;;11.20;99.90;;;10.73;100.00;96215.81;5052756;28;20024;-38
2023/10/30 04:00:41;;;;;;;1.67;1.20;;;11.10;99.90;;;10.65;100.00;96203.06;5048453;28;20107;-40
2023/10/30 04:03:07;;;;;;;1.80;1.40;;;11.00;99.90;;;10.57;100.00;96203.50;5045733;28;20059;-39
2023/10/30 04:05:33;;;;;;;3.45;1.50;;;11.00;99.90;;;10.47;100.00;96211.06;5051176;28;20033;-40
2023/10/30 04:08:00;;;;;;;1.50;1.20;;;10.90;99.90;;;10.41;100.00;96208.78;5049036;28;20043;-39
2023/10/30 04:10:25;;;;;;;4.80;1.30;;;10.80;99.90;;;10.33;100.00;96200.44;5049834;28;20166;-39
2023/10/30 04:12:51;;;;;;;6.07;1.23;;;10.70;99.90;;;10.24;100.00;96199.09;5049350;28;20040;-39
2023/10/30 04:15:18;;;;;;;3.60;1.20;;;10.70;99.90;;;10.15;100.00;96196.13;5049372;28;20040;-38
2023/10/30 04:17:44;;;;;;;1.15;1.00;;;10.60;99.90;;;10.09;100.00;96206.06;5050779;28;20032;-39
2023/10/30 04:20:11;;;;;;;2.53;1.20;;;10.50;99.90;;;10.04;100.00;96208.09;5052324;28;20029;-41
2023/10/30 04:22:36;;;;;;;1.48;1.30;;;10.40;99.90;;;9.99;100.00;96198.75;5050736;28;20467;-41
2023/10/30 04:25:06;;;;;;;1.60;1.00;;;10.40;99.90;;;10.02;100.00;96209.97;5054071;28;20032;-41
2023/10/30 04:27:33;;;;;;;4.82;1.50;;;10.40;99.90;;;10.03;100.00;96200.28;5055801;28;20024;-44
2023/10/30 04:29:59;;;;;;;2.50;1.20;;;10.40;99.90;;;10.00;100.00;96201.31;5051260;28;20682;-41
2023/10/30 04:32:25;;;;;;;5.93;1.40;;;10.40;99.90;;;9.98;100.00;96197.91;5054472;28;20016;-38
2023/10/30 04:34:51;;;;;;;2.80;1.25;;;10.40;99.90;;;9.98;100.00;96203.19;5051361;28;20036;-39
2023/10/30 04:37:19;;;;;;;1.67;1.20;;;10.40;99.90;;;9.92;100.00;96185.91;5050304;28;20087;-39
2023/10/30 04:39:45;;;;;;;1.60;1.20;;;10.40;99.90;;;10.01;100.00;96191.59;5051692;28;20034;-40
2023/10/30 04:42:11;;;;;;;2.15;1.10;;;10.40;99.90;;;10.01;100.00;96184.53;5053197;28;20036;-39
2023/10/30 04:44:37;;;;;;;1.42;1.10;;;10.40;99.90;;;9.99;100.00;96185.56;5052734;28;20032;-39
2023/10/30 04:47:03;;;;;;;1.65;1.20;;;10.40;99.90;;;9.94;100.00;96180.53;5049725;28;20500;-39
2023/10/30 04:49:34;;;;;;;2.03;1.10;;;10.30;99.90;;;9.88;100.00;96189.63;5052343;28;20215;-37
2023/10/30 04:52:00;;;;;;;2.15;1.15;;;10.30;99.90;;;9.87;100.00;96194.97;5051880;28;20599;-37
2023/10/30 04:54:26;;;;;;;1.70;1.10;;;10.30;99.90;;;9.88;100.00;96200.16;5054531;28;20035;-37
2023/10/30 04:56:52;;;;;;;1.73;1.10;;;10.30;99.90;;;9.91;100.00;96191.25;5047021;28;20024;-37
2023/10/30 04:59:17;;;;;;;2.83;1.10;;;10.30;99.90;;;9.97;100.00;96204.09;5055218;28;20029;-36
2023/10/30 05:01:43;;;;;;;2.10;1.20;;;10.40;99.90;;;9.94;100.00;96191.06;5047408;28;20119;-37
2023/10/30 05:04:09;;;;;;;1.30;1.05;;;10.40;99.90;;;9.98;100.00;96192.63;5041468;28;20039;-36
2023/10/30 05:06:34;;;;;;;1.40;1.00;;;10.40;99.90;;;10.06;100.00;96197.47;5050005;28;20622;-37
2023/10/30 05:09:00;;;;;;;2.38;1.08;;;10.50;99.90;;;10.09;100.00;96203.44;5047356;28;20036;-36
2023/10/30 05:11:26;;;;;;;1.33;1.05;;;10.50;99.90;;;10.09;100.00;96206.06;5052957;28;20476;-37
2023/10/30 05:13:52;;;;;;;1.30;1.20;;;10.50;99.90;;;10.16;100.00;96214.50;5047044;28;20068;-37
2023/10/30 05:16:17;;;;;;;1.98;1.10;;;10.60;99.90;;;10.19;100.00;96203.78;5048576;28;20484;-36
2023/10/30 05:18:43;;;;;;;1.42;1.00;;;10.60;99.90;;;10.22;100.00;96200.97;5044796;28;20028;-36
2023/10/30 05:21:09;;;;;;;1.45;1.10;;;10.60;99.90;;;10.24;100.00;96200.91;5050111;28;20055;-37
2023/10/30 05:23:35;;;;;;;1.48;0.90;;;10.60;99.90;;;10.24;100.00;96193.00;5051759;28;20024;-36
2023/10/30 05:26:00;;;;;;;1.70;0.90;;;10.60;99.90;;;10.18;100.00;96178.38;5047167;28;20047;-37
2023/10/30 05:28:26;;;;;;;2.17;1.10;;;10.60;99.90;;;10.09;100.00;96171.81;5055376;28;20028;-38
2023/10/30 05:30:52;;;;;;;1.00;0.80;;;10.50;99.90;;;10.04;100.00;96175.66;5050854;28;20507;-37
2023/10/30 05:33:17;;;;;;;1.55;1.20;;;10.50;99.90;;;9.96;100.00;96165.53;5057115;28;20056;-36
2023/10/30 05:35:43;;;;;;;2.33;1.63;;;10.40;99.90;;;9.89;100.00;96164.16;5055737;28;20100;-37
2023/10/30 05:38:09;;;;;;;2.47;1.50;;;10.30;99.90;;;9.84;100.00;96174.94;5054122;28;20035;-37
2023/10/30 05:40:34;;;;;;;2.60;1.60;;;10.30;99.90;;;9.84;100.00;96174.09;5054979;28;20460;-36
2023/10/30 05:43:00;;;;;;;4.60;2.22;;;10.20;99.90;;;9.84;100.00;96166.19;5056381;28;20122;-37
2023/10/30 05:45:26;;;;;;;3.05;2.30;;;10.30;99.90;;;9.88;100.00;96159.81;5047854;28;20016;-37
2023/10/30 05:47:52;;;;;;;3.13;2.30;;;10.30;99.90;;;9.89;100.00;96161.53;5052463;28;20290;-36
2023/10/30 05:50:17;;;;;;;2.25;2.05;;;10.30;99.90;;;9.85;100.00;96159.97;5051924;28;20029;-37
2023/10/30 05:52:43;;;;;;;3.20;2.40;;;10.30;99.90;;;9.80;100.00;96165.50;5052265;28;20028;-36
2023/10/30 05:55:09;;;;;;;3.15;2.40;;;10.20;99.90;;;9.73;100.00;96156.25;5045500;28;20505;-37
2023/10/30 05:57:36;;;;;;;3.08;2.47;;;10.20;99.90;;;9.61;100.00;96154.25;5051961;28;20028;-39
2023/10/30 06:00:03;;;;;;;5.65;2.50;;;10.10;99.90;;;9.62;100.00;96159.44;5053683;28;20059;-41
2023/10/30 06:02:29;;;;;;;3.05;2.50;;;10.00;99.90;;;9.55;100.00;96147.53;5053072;28;20029;-41
2023/10/30 06:04:54;;;;;;;3.03;2.15;;;10.00;99.90;;;9.51;100.00;96145.97;5049126;28;20040;-41
2023/10/30 06:07:20;;;;;;;3.65;2.55;;;10.00;99.90;;;9.46;100.00;96137.50;5053897;28;20040;-42
2023/10/30 06:09:46;;;;;;;3.17;2.13;;;9.90;99.90;;;9.40;100.00;96135.16;5038657;28;20400;-42
2023/10/30 06:12:11;;;;;;;3.05;2.60;;;9.90;99.90;;;9.42;100.00;96149.09;5055224;28;20025;-41
2023/10/30 06:14:37;;;;;;;4.20;2.80;;;9.80;99.90;;;9.36;100.00;96135.31;5056010;28;20043;-41
2023/10/30 06:17:03;;;;;;;4.00;2.92;;;9.80;99.90;;;9.24;100.00;96114.06;5054669;28;20024;-41
2023/10/30 06:19:29;;;;;;;4.40;2.92;;;9.80;99.90;;;9.33;100.00;96132.88;5058623;28;20051;-42
2023/10/30 06:21:58;;;;;;;7.90;3.17;;;9.80;99.90;;;9.35;100.00;96133.63;5053224;28;20469;-38
2023/10/30 06:24:24;;;;;;;5.07;2.80;;;9.80;99.90;;;9.42;100.00;96142.06;5054934;28;20033;-39
2023/10/30 06:26:49;;;;;;;4.93;3.33;;;9.90;99.90;;;9.44;100.00;96134.94;5056204;28;20045;-38
2023/10/30 06:29:15;;;;;;;3.30;2.90;;;9.90;99.90;;;9.47;100.00;96137.41;5058917;28;20179;-37
2023/10/30 06:31:41;;;;;;;3.33;2.83;;;9.90;99.90;;;9.51;100.00;96132.81;5056015;28;20467;-39
2023/10/30 06:34:07;;;;;;;3.60;2.72;;;9.90;99.90;;;9.51;100.00;96130.19;5056221;28;20047;-39
2023/10/30 06:36:32;;;;;;;5.28;3.50;;;10.00;99.90;;;9.55;100.00;96132.59;5055723;28;20032;-39
2023/10/30 06:39:00;;;;;;;3.85;2.92;;;10.00;99.90;;;9.56;100.00;96133.44;5053939;28;20762;-39
2023/10/30 06:41:26;;;;;;;4.78;3.15;;;10.00;99.90;;;9.60;100.00;96137.63;5058293;28;20488;-38
2023/10/30 06:43:52;;;;;;;6.03;3.05;;;10.00;99.90;;;9.52;100.00;96135.38;5055758;28;20051;-39
2023/10/30 06:46:17;;;;;;;4.00;3.00;;;10.10;99.90;;;9.62;100.00;96151.53;5053520;28;20044;-39
2023/10/30 06:48:43;;;;;;;4.07;3.20;;;10.10;99.90;;;9.66;100.00;96158.34;5056088;28;20033;-39
2023/10/30 06:51:09;;;;;;;4.97;3.38;;;10.10;99.90;;;9.70;100.00;96165.13;5054318;28;20075;-38
2023/10/30 06:53:34;;;;;;;6.65;3.30;;;10.20;99.90;;;9.71;100.00;96152.84;5057207;28;20033;-38
2023/10/30 06:56:00;;;;;;;3.75;3.00;;;10.20;99.90;;;9.69;100.00;96145.03;5049867;28;20643;-37
2023/10/30 06:58:26;;;;;;;4.32;3.30;;;10.20;99.90;;;9.69;100.00;96142.38;5055152;28;20064;-41
2023/10/30 07:00:52;;;;;;;6.70;3.53;;;10.20;99.90;;;9.69;100.00;96145.03;5047796;28;20041;-42
2023/10/30 07:03:17;;;;;;;4.35;3.50;;;10.20;99.90;;;9.75;100.00;96147.31;5059360;28;20029;-43
2023/10/30 07:05:43;;;;;;;4.85;3.13;;;10.20;99.90;;;9.82;100.00;96144.38;5056680;28;20037;-43
2023/10/30 07:08:09;;;;;;;4.20;3.33;;;10.30;99.90;;;9.91;100.00;96149.13;5059749;28;20044;-41
2023/10/30 07:10:35;;;;;;;4.03;3.00;;;10.30;99.90;;;10.01;100.00;96160.84;5056860;28;20080;-44
2023/10/30 07:13:01;;;;;;;4.45;3.40;;;10.40;99.90;;;10.07;100.00;96152.63;5056173;28;20044;-41
2023/10/30 07:15:27;;;;;;;4.28;3.58;;;10.50;99.90;;;10.08;100.00;96145.56;5058797;28;20090;-42
2023/10/30 07:17:55;;;;;;;5.70;3.72;;;10.60;99.90;;;10.13;100.00;96165.44;5057913;28;20029;-42
2023/10/30 07:20:21;;;;;;;4.00;3.50;;;10.60;99.90;;;10.13;100.00;96160.19;5059824;28;20032;-41
2023/10/30 07:22:47;;;;;;;4.65;3.10;;;10.60;99.90;;;10.17;100.00;96163.50;5056170;28;20155;-40
2023/10/30 07:25:13;;;;;;;4.90;3.90;;;10.60;99.90;;;10.19;100.00;96168.69;5057582;28;20446;-40
2023/10/30 07:27:39;;;;;;;5.57;3.45;;;10.60;99.90;;;10.21;100.00;96170.31;5030732;28;20049;-43
2023/10/30 07:30:05;;;;;;;4.53;3.10;;;10.60;99.90;;;10.19;100.00;96173.94;5046245;28;20043;-41
2023/10/30 07:32:31;;;;;;;6.72;3.58;;;10.70;99.90;;;10.24;100.00;96172.75;5059076;28;20032;-40
2023/10/30 07:34:56;;;;;;;4.43;3.65;;;10.70;99.90;;;10.24;100.00;96161.38;5056002;28;20039;-41
2023/10/30 07:37:22;;;;;;;3.65;3.25;;;10.70;99.90;;;10.29;100.00;96159.34;5041759;28;20111;-41
2023/10/30 07:39:48;;;;;;;5.55;3.67;;;10.70;99.90;;;10.34;100.00;96156.47;5055032;28;20972;-42
2023/10/30 07:42:14;;;;;;;4.10;3.53;;;10.70;99.90;;;10.37;100.00;96159.78;5058390;28;20035;-43
2023/10/30 07:44:40;;;;;;;6.80;4.28;;;10.80;99.90;;;10.44;100.00;96153.22;5057523;28;20516;-42
2023/10/30 07:47:05;;;;;;;5.47;4.00;;;10.90;99.90;;;10.45;100.00;96143.56;5056273;28;20029;-42
2023/10/30 07:49:31;;;;;;;7.18;4.68;;;10.90;99.90;;;10.57;100.00;96142.00;5058349;28;20567;-42
2023/10/30 07:51:57;;;;;;;8.75;5.25;;;11.00;99.90;;;10.58;100.00;96144.56;5058146;28;20044;-41
2023/10/30 07:54:23;;;;;;;9.45;5.07;;;11.00;99.90;;;10.57;100.00;96136.72;5053230;28;20488;-41
2023/10/30 07:56:49;;;;;;;6.03;4.45;;;11.10;99.90;;;10.59;100.00;96137.50;5057234;28;20040;-40
2023/10/30 07:59:14;;;;;;;8.43;5.07;;;11.10;99.90;;;10.65;100.00;96140.63;5056244;28;20032;-40
2023/10/30 08:01:40;;;;;;;7.40;4.88;;;11.10;99.90;;;10.70;100.00;96140.38;5048451;28;20154;-39
2023/10/30 08:04:09;;;;;;;9.88;5.28;;;11.20;99.90;;;10.74;100.00;96141.03;5047754;28;20662;-39
2023/10/30 08:06:35;;;;;;;6.03;4.25;;;11.20;99.90;;;10.80;100.00;96138.91;5045576;28;20103;-40
2023/10/30 08:09:01;;;;;;;8.32;5.07;;;11.20;99.90;;;10.87;100.00;96132.34;5049895;28;20043;-39
2023/10/30 08:11:27;;;;;;;5.82;3.78;;;11.30;99.90;;;10.92;100.00;96134.69;5055579;28;20392;-38
2023/10/30 08:13:53;;;;;;;6.68;4.22;;;11.40;99.90;;;10.97;100.00;96124.72;5053943;28;20302;-40
2023/10/30 08:16:18;;;;;;;6.60;4.57;;;11.40;99.90;;;10.92;100.00;96102.19;5055069;28;20047;-39
2023/10/30 08:18:44;;;;;;;6.05;4.03;;;11.50;99.90;;;11.12;100.00;96128.25;5050356;28;20504;-39
2023/10/30 08:21:10;;;;;;;6.55;4.15;;;11.50;99.90;;;11.16;100.00;96121.00;5055198;28;20020;-38
2023/10/30 08:23:37;;;;;;;6.72;4.57;;;11.60;99.90;;;11.22;100.00;96124.13;5041325;28;20032;-40
2023/10/30 08:26:06;;;;;;;5.47;3.80;;;11.70;99.90;;;11.28;100.00;96121.09;5051782;28;20037;-40
2023/10/30 08:28:33;;;;;;;5.00;3.47;;;11.80;99.90;;;11.35;100.00;96126.03;5039526;28;20422;-40
2023/10/30 08:30:59;;;;;;;6.40;4.07;;;11.80;99.90;;;11.42;100.00;96122.06;5054575;28;20945;-39
2023/10/30 08:33:25;;;;;;;6.30;4.25;;;11.90;99.90;;;11.46;100.00;96115.66;5051364;28;20095;-40
2023/10/30 08:35:50;;;;;;;5.35;4.60;;;11.90;99.90;;;11.51;100.00;96120.66;5054203;28;20452;-41
2023/10/30 08:38:16;;;;;;;5.45;3.90;;;12.00;99.90;;;11.57;100.00;96113.19;5052396;28;20028;-39
2023/10/30 08:40:42;;;;;;;6.00;4.63;;;12.00;99.90;;;11.64;100.00;96119.81;5052856;28;20698;-39
2023/10/30 08:43:07;;;;;;;4.50;4.00;;;12.10;99.90;;;11.67;100.00;96123.22;5057069;28;20119;-40
2023/10/30 08:45:33;;;;;;;7.05;4.43;;;12.10;99.90;;;11.73;100.00;96118.38;5039967;28;20037;-40
2023/10/30 08:47:59;;;;;;;6.10;4.18;;;12.20;99.90;;;11.83;100.00;96118.69;5050639;28;20619;-42
2023/10/30 08:50:24;;;;;;;4.85;4.10;;;12.30;99.90;;;11.87;100.00;96111.41;5043704;28;20154;-39
2023/10/30 08:52:50;;;;;;;6.53;4.05;;;12.30;99.90;;;11.96;100.00;96111.69;5047708;28;20316;-39
2023/10/30 08:55:16;;;;;;;7.30;3.88;;;12.40;99.90;;;12.03;100.00;96114.81;5052576;28;20028;-39
2023/10/30 08:57:42;;;;;;;5.05;3.83;;;12.50;99.90;;;12.06;100.00;96109.34;5049046;28;20471;-40
2023/10/30 09:00:08;;;;;;;37.53;22.42;;;12.50;99.90;;;12.07;100.00;96102.25;5051052;28;20480;-41
2023/10/30 09:02:34;;;;;;;16.77;12.25;;;12.50;99.90;;;12.12;100.00;96108.09;5054079;28;20037;-40
2023/10/30 09:05:00;;;;;;;64.32;40.63;;;12.60;99.90;;;12.18;100.00;96097.13;5043755;28;20496;-44
2023/10/30 09:07:26;;;;;;;56.85;30.67;;;12.60;99.90;;;12.26;100.00;96100.13;5028047;28;20040;-39
2023/10/30 09:09:52;;;;;;;15.57;9.30;;;12.60;99.90;;;12.30;100.00;96096.34;5045870;28;20629;-40
2023/10/30 09:12:17;;;;;;;5.53;4.32;;;12.70;99.90;;;12.33;100.00;96100.59;5050130;28;20032;-40
2023/10/30 09:14:43;;;;;;;5.65;3.50;;;12.80;99.90;;;12.37;100.00;96095.00;5046712;28;20075;-39
2023/10/30 09:17:09;;;;;;;5.28;3.10;;;12.80;99.90;;;12.47;100.00;96091.75;5048309;28;20036;-39
2023/10/30 09:19:38;;;;;;;4.20;3.13;;;12.80;99.90;;;12.52;100.00;96087.00;5046896;28;20036;-42
2023/10/30 09:22:04;;;;;;;3.40;2.83;;;12.90;99.90;;;12.59;100.00;96090.94;5052789;28;20557;-41
2023/10/30 09:24:30;;;;;;;3.83;3.08;;;12.90;99.90;;;12.66;100.00;96086.94;5053512;28;20021;-42
2023/10/30 09:26:56;;;;;;;4.60;3.05;;;13.00;99.90;;;12.69;100.00;96086.75;5054422;28;20036;-41
2023/10/30 09:29:22;;;;;;;6.68;3.08;;;13.10;99.90;;;12.72;100.00;96089.19;5054816;28;20480;-40
2023/10/30 09:31:49;;;;;;;4.00;2.80;;;13.10;99.90;;;12.79;100.00;96089.63;5055152;28;20024;-40
2023/10/30 09:34:16;;;;;;;4.53;3.25;;;13.10;99.90;;;12.83;100.00;96084.97;5057831;28;20028;-41
2023/10/30 09:36:41;;;;;;;3.70;2.58;;;13.20;99.90;;;12.89;100.00;96074.84;5046209;28;20041;-42
2023/10/30 09:39:07;;;;;;;2.95;2.60;;;13.20;99.90;;;12.95;100.00;96068.28;5054227;28;20040;-41
2023/10/30 09:41:43;;;;;;;7.18;3.13;;;13.30;99.90;;;13.02;100.00;96064.25;5042681;28;20032;-43
2023/10/30 09:44:10;;;;;;;4.65;3.00;;;13.30;99.90;;;13.07;100.00;96069.25;5054079;28;20032;-41
2023/10/30 09:46:39;;;;;;;4.10;2.70;;;13.40;99.90;;;13.13;100.00;96068.81;5052256;28;20041;-41
2023/10/30 09:49:06;;;;;;;4.35;2.60;;;13.50;99.90;;;13.24;100.00;96074.22;5057876;28;20032;-46
2023/10/30 09:51:33;;;;;;;3.67;2.67;;;13.60;99.90;;;13.35;100.00;96066.44;5049972;28;20473;-45
2023/10/30 09:53:59;;;;;;;3.15;2.22;;;13.70;99.90;;;13.38;100.00;96067.19;5036684;28;20101;-44
2023/10/30 09:56:28;;;;;;;3.97;2.35;;;13.70;99.90;;;13.53;100.00;96068.75;5054462;28;20064;-47
2023/10/30 09:58:53;;;;;;;4.03;2.15;;;13.80;99.90;;;13.62;100.00;96070.78;5043620;28;20547;-41
2023/10/30 10:01:20;;;;;;;3.03;2.38;;;13.90;99.90;;;13.74;100.00;96067.22;5046672;28;20578;-42
2023/10/30 10:03:46;;;;;;;3.30;2.30;;;14.00;99.90;;;13.80;100.00;96068.63;5042303;28;20226;-42
2023/10/30 10:06:12;;;;;;;2.92;2.30;;;14.10;99.90;;;13.80;100.00;96055.38;5038055;28;20239;-42
2023/10/30 10:08:42;;;;;;;3.30;2.25;;;14.20;99.90;;;13.90;100.00;96052.91;5047018;28;20508;-43
2023/10/30 10:11:08;;;;;;;2.92;2.00;;;14.20;99.90;;;13.93;100.00;96056.16;5045924;28;20036;-42